sensor_id;sensor_type;location;lat;lon;timestamp;pressure;altitude;pressure_sealevel;temperature;humidity
29461;BME280;16428;47.836;35.106;2023-02-14T00:02:10;101625.38;;;3.24;100.00
29461;BME280;16428;47.836;35.106;2023-02-14T00:04:40;101629.50;;;3.41;100.00
29461;BME280;16428;47.836;35.106;2023-02-14T00:07:17;101621.47;;;3.30;100.00
29461;BME280;16428;47.836;35.106;2023-02-14T00:09:52;101603.22;;;3.00;100.00
29461;BME280;16428;47.836;35.106;2023-02-14T00:12:25;101602.56;;;3.34;100.00
29461;BME280;16428;47.836;35.106;2023-02-14T00:15:03;101598.09;;;3.22;100.00
29461;BME280;16428;47.836;35.106;2023-02-14T00:17:56;101603.19;;;3.12;100.00
29461;BME280;16428;47.836;35.106;2023-02-14T00:20:29;101595.91;;;3.03;100.00
29461;BME280;16428;47.836;35.106;2023-02-14T00:23:05;101595.25;;;3.00;100.00
29461;BME280;16428;47.836;35.106;2023-02-14T00:25:40;101576.34;;;2.92;100.00
29461;BME280;16428;47.836;35.106;2023-02-14T00:28:19;101577.94;;;2.81;100.00
29461;BME280;16428;47.836;35.106;2023-02-14T00:30:56;101563.31;;;2.89;100.00
29461;BME280;16428;47.836;35.106;2023-02-14T00:33:32;101567.75;;;2.75;100.00
29461;BME280;16428;47.836;35.106;2023-02-14T00:36:09;101568.81;;;2.86;100.00
29461;BME280;16428;47.836;35.106;2023-02-14T00:38:43;101558.81;;;3.14;100.00
29461;BME280;16428;47.836;35.106;2023-02-14T00:41:14;101554.03;;;3.07;100.00
29461;BME280;16428;47.836;35.106;2023-02-14T00:44:07;101551.41;;;2.94;100.00
29461;BME280;16428;47.836;35.106;2023-02-14T00:46:40;101549.19;;;2.88;100.00
29461;BME280;16428;47.836;35.106;2023-02-14T00:49:09;101545.03;;;2.97;100.00
29461;BME280;16428;47.836;35.106;2023-02-14T00:51:40;101533.78;;;2.80;100.00
29461;BME280;16428;47.836;35.106;2023-02-14T00:54:10;101520.31;;;2.71;100.00
29461;BME280;16428;47.836;35.106;2023-02-14T00:56:46;101516.28;;;2.78;100.00
29461;BME280;16428;47.836;35.106;2023-02-14T00:59:22;101518.28;;;2.62;100.00
29461;BME280;16428;47.836;35.106;2023-02-14T01:01:54;101524.88;;;2.56;100.00
29461;BME280;16428;47.836;35.106;2023-02-14T01:04:28;101516.84;;;2.58;100.00
29461;BME280;16428;47.836;35.106;2023-02-14T01:07:05;101510.88;;;2.67;100.00
29461;BME280;16428;47.836;35.106;2023-02-14T01:09:36;101506.00;;;2.73;100.00
29461;BME280;16428;47.836;35.106;2023-02-14T01:12:06;101510.78;;;2.68;100.00
29461;BME280;16428;47.836;35.106;2023-02-14T01:14:37;101500.69;;;2.73;100.00
29461;BME280;16428;47.836;35.106;2023-02-14T01:17:07;101497.53;;;2.56;100.00
29461;BME280;16428;47.836;35.106;2023-02-14T01:19:39;101487.31;;;2.62;100.00
29461;BME280;16428;47.836;35.106;2023-02-14T01:22:12;101484.44;;;2.65;100.00
29461;BME280;16428;47.836;35.106;2023-02-14T01:24:43;101469.50;;;2.52;100.00
29461;BME280;16428;47.836;35.106;2023-02-14T01:27:13;101461.97;;;2.58;100.00
29461;BME280;16428;47.836;35.106;2023-02-14T01:29:44;101452.41;;;2.68;100.00
29461;BME280;16428;47.836;35.106;2023-02-14T01:32:18;101457.63;;;2.44;100.00
29461;BME280;16428;47.836;35.106;2023-02-14T01:35:18;101454.75;;;2.35;100.00
29461;BME280;16428;47.836;35.106;2023-02-14T01:37:48;101465.03;;;2.65;100.00
29461;BME280;16428;47.836;35.106;2023-02-14T01:40:21;101469.00;;;2.59;100.00
29461;BME280;16428;47.836;35.106;2023-02-14T01:42:50;101469.94;;;2.58;100.00
29461;BME280;16428;47.836;35.106;2023-02-14T01:45:24;101458.03;;;2.51;100.00
29461;BME280;16428;47.836;35.106;2023-02-14T01:47:58;101447.22;;;2.67;100.00
29461;BME280;16428;47.836;35.106;2023-02-14T01:50:39;101442.75;;;2.67;100.00
29461;BME280;16428;47.836;35.106;2023-02-14T01:53:20;101447.22;;;2.54;100.00
29461;BME280;16428;47.836;35.106;2023-02-14T01:56:05;101423.91;;;2.59;100.00
29461;BME280;16428;47.836;35.106;2023-02-14T01:58:43;101417.22;;;2.54;100.00
29461;BME280;16428;47.836;35.106;2023-02-14T02:01:15;101408.84;;;2.60;100.00
29461;BME280;16428;47.836;35.106;2023-02-14T02:03:53;101419.19;;;2.63;100.00
29461;BME280;16428;47.836;35.106;2023-02-14T02:06:50;101408.63;;;2.50;100.00
29461;BME280;16428;47.836;35.106;2023-02-14T02:09:39;101418.69;;;2.58;100.00
29461;BME280;16428;47.836;35.106;2023-02-14T02:12:32;101417.50;;;2.62;100.00
29461;BME280;16428;47.836;35.106;2023-02-14T02:15:06;101416.22;;;2.67;100.00
29461;BME280;16428;47.836;35.106;2023-02-14T02:18:02;101411.34;;;2.61;100.00
29461;BME280;16428;47.836;35.106;2023-02-14T02:33:10;101394.81;;;2.45;100.00
29461;BME280;16428;47.836;35.106;2023-02-14T02:53:36;101375.63;;;2.54;100.00
29461;BME280;16428;47.836;35.106;2023-02-14T02:56:45;101372.91;;;2.79;100.00
29461;BME280;16428;47.836;35.106;2023-02-14T02:59:30;101367.09;;;2.74;100.00
29461;BME280;16428;47.836;35.106;2023-02-14T03:02:17;101356.56;;;2.36;100.00
29461;BME280;16428;47.836;35.106;2023-02-14T03:04:53;101351.13;;;2.51;100.00
29461;BME280;16428;47.836;35.106;2023-02-14T03:10:20;101338.28;;;2.44;100.00
29461;BME280;16428;47.836;35.106;2023-02-14T03:22:49;101319.44;;;2.36;100.00
29461;BME280;16428;47.836;35.106;2023-02-14T03:28:27;101307.03;;;2.37;100.00
29461;BME280;16428;47.836;35.106;2023-02-14T03:34:01;101304.75;;;2.56;100.00
29461;BME280;16428;47.836;35.106;2023-02-14T03:36:41;101295.31;;;2.52;100.00
29461;BME280;16428;47.836;35.106;2023-02-14T03:39:38;101274.84;;;2.54;100.00
29461;BME280;16428;47.836;35.106;2023-02-14T03:42:23;101274.97;;;2.53;100.00
29461;BME280;16428;47.836;35.106;2023-02-14T03:44:55;101279.94;;;2.57;100.00
29461;BME280;16428;47.836;35.106;2023-02-14T03:47:29;101270.50;;;2.53;100.00
29461;BME280;16428;47.836;35.106;2023-02-14T03:50:14;101261.38;;;2.57;100.00
29461;BME280;16428;47.836;35.106;2023-02-14T03:52:47;101258.59;;;2.59;100.00
29461;BME280;16428;47.836;35.106;2023-02-14T03:55:25;101260.63;;;2.55;100.00
29461;BME280;16428;47.836;35.106;2023-02-14T03:58:14;101249.06;;;2.56;100.00
29461;BME280;16428;47.836;35.106;2023-02-14T04:00:47;101248.03;;;2.46;100.00
29461;BME280;16428;47.836;35.106;2023-02-14T04:03:19;101242.69;;;2.59;100.00
29461;BME280;16428;47.836;35.106;2023-02-14T04:05:50;101244.31;;;2.72;100.00
29461;BME280;16428;47.836;35.106;2023-02-14T04:08:23;101247.41;;;2.90;100.00
29461;BME280;16428;47.836;35.106;2023-02-14T04:10:53;101235.66;;;2.81;100.00
29461;BME280;16428;47.836;35.106;2023-02-14T04:13:23;101238.66;;;2.77;100.00
29461;BME280;16428;47.836;35.106;2023-02-14T04:15:52;101236.63;;;2.80;100.00
29461;BME280;16428;47.836;35.106;2023-02-14T04:18:22;101227.03;;;2.67;100.00
29461;BME280;16428;47.836;35.106;2023-02-14T04:21:13;101217.81;;;2.72;100.00
29461;BME280;16428;47.836;35.106;2023-02-14T04:23:47;101223.31;;;2.69;100.00
29461;BME280;16428;47.836;35.106;2023-02-14T04:26:17;101209.31;;;2.67;100.00
29461;BME280;16428;47.836;35.106;2023-02-14T04:28:49;101212.25;;;2.75;100.00
29461;BME280;16428;47.836;35.106;2023-02-14T04:31:18;101206.94;;;2.75;100.00
29461;BME280;16428;47.836;35.106;2023-02-14T04:33:49;101208.16;;;2.71;100.00
29461;BME280;16428;47.836;35.106;2023-02-14T04:36:23;101209.88;;;2.83;100.00
29461;BME280;16428;47.836;35.106;2023-02-14T04:38:55;101205.78;;;2.91;100.00
29461;BME280;16428;47.836;35.106;2023-02-14T04:41:26;101195.66;;;2.85;100.00
29461;BME280;16428;47.836;35.106;2023-02-14T04:43:54;101190.91;;;2.77;100.00
29461;BME280;16428;47.836;35.106;2023-02-14T04:46:24;101199.25;;;2.83;100.00
29461;BME280;16428;47.836;35.106;2023-02-14T04:48:56;101200.19;;;2.71;100.00
29461;BME280;16428;47.836;35.106;2023-02-14T04:51:25;101194.25;;;2.68;100.00
29461;BME280;16428;47.836;35.106;2023-02-14T04:53:55;101183.75;;;2.66;100.00
29461;BME280;16428;47.836;35.106;2023-02-14T04:56:25;101189.34;;;2.74;100.00
29461;BME280;16428;47.836;35.106;2023-02-14T04:58:56;101185.50;;;2.78;100.00
29461;BME280;16428;47.836;35.106;2023-02-14T05:01:24;101180.41;;;2.75;100.00
29461;BME280;16428;47.836;35.106;2023-02-14T05:03:54;101178.16;;;2.82;100.00
29461;BME280;16428;47.836;35.106;2023-02-14T05:06:24;101168.63;;;2.79;100.00
29461;BME280;16428;47.836;35.106;2023-02-14T05:08:55;101185.41;;;2.91;100.00
29461;BME280;16428;47.836;35.106;2023-02-14T05:11:25;101175.38;;;2.83;100.00
29461;BME280;16428;47.836;35.106;2023-02-14T05:13:56;101181.66;;;2.82;100.00
29461;BME280;16428;47.836;35.106;2023-02-14T05:16:30;101174.34;;;2.97;100.00
29461;BME280;16428;47.836;35.106;2023-02-14T05:18:59;101170.94;;;2.95;100.00
29461;BME280;16428;47.836;35.106;2023-02-14T05:21:30;101174.50;;;3.18;100.00
29461;BME280;16428;47.836;35.106;2023-02-14T05:24:00;101175.09;;;3.10;100.00
29461;BME280;16428;47.836;35.106;2023-02-14T05:26:32;101166.28;;;3.21;100.00
29461;BME280;16428;47.836;35.106;2023-02-14T05:29:01;101171.84;;;3.18;100.00
29461;BME280;16428;47.836;35.106;2023-02-14T05:31:34;101172.09;;;3.15;100.00
29461;BME280;16428;47.836;35.106;2023-02-14T05:34:14;101160.97;;;3.21;100.00
29461;BME280;16428;47.836;35.106;2023-02-14T05:36:44;101159.53;;;3.17;100.00
29461;BME280;16428;47.836;35.106;2023-02-14T05:39:19;101156.84;;;3.06;100.00
29461;BME280;16428;47.836;35.106;2023-02-14T05:41:50;101158.47;;;3.20;100.00
29461;BME280;16428;47.836;35.106;2023-02-14T05:44:18;101157.84;;;3.16;100.00
29461;BME280;16428;47.836;35.106;2023-02-14T05:46:50;101152.03;;;3.11;100.00
29461;BME280;16428;47.836;35.106;2023-02-14T05:49:20;101158.47;;;3.20;100.00
29461;BME280;16428;47.836;35.106;2023-02-14T05:51:50;101139.25;;;3.05;100.00
29461;BME280;16428;47.836;35.106;2023-02-14T05:54:19;101149.28;;;3.24;100.00
29461;BME280;16428;47.836;35.106;2023-02-14T05:57:22;101135.66;;;3.17;100.00
29461;BME280;16428;47.836;35.106;2023-02-14T05:59:52;101138.78;;;3.22;100.00
29461;BME280;16428;47.836;35.106;2023-02-14T06:02:25;101144.81;;;3.24;100.00
29461;BME280;16428;47.836;35.106;2023-02-14T06:05:01;101142.28;;;3.23;100.00
29461;BME280;16428;47.836;35.106;2023-02-14T06:07:43;101134.31;;;3.23;100.00
29461;BME280;16428;47.836;35.106;2023-02-14T06:10:24;101134.69;;;3.18;100.00
29461;BME280;16428;47.836;35.106;2023-02-14T06:12:59;101129.63;;;3.26;100.00
29461;BME280;16428;47.836;35.106;2023-02-14T06:15:28;101123.56;;;3.24;100.00
29461;BME280;16428;47.836;35.106;2023-02-14T06:17:58;101126.34;;;3.23;100.00
29461;BME280;16428;47.836;35.106;2023-02-14T06:20:31;101120.19;;;3.22;100.00
29461;BME280;16428;47.836;35.106;2023-02-14T06:23:03;101125.03;;;3.28;100.00
29461;BME280;16428;47.836;35.106;2023-02-14T06:25:41;101113.19;;;3.21;100.00
29461;BME280;16428;47.836;35.106;2023-02-14T06:28:38;101112.72;;;3.16;100.00
29461;BME280;16428;47.836;35.106;2023-02-14T06:31:15;101119.22;;;3.23;100.00
29461;BME280;16428;47.836;35.106;2023-02-14T06:33:44;101098.47;;;3.28;100.00
29461;BME280;16428;47.836;35.106;2023-02-14T06:36:14;101109.91;;;3.06;100.00
29461;BME280;16428;47.836;35.106;2023-02-14T06:38:43;101100.91;;;3.31;100.00
29461;BME280;16428;47.836;35.106;2023-02-14T06:41:16;101107.75;;;3.11;100.00
29461;BME280;16428;47.836;35.106;2023-02-14T06:43:46;101105.38;;;3.20;100.00
29461;BME280;16428;47.836;35.106;2023-02-14T06:46:20;101106.31;;;3.07;100.00
29461;BME280;16428;47.836;35.106;2023-02-14T06:48:50;101102.81;;;3.29;100.00
29461;BME280;16428;47.836;35.106;2023-02-14T06:51:19;101104.75;;;3.16;100.00
29461;BME280;16428;47.836;35.106;2023-02-14T06:53:54;101099.69;;;3.13;100.00
29461;BME280;16428;47.836;35.106;2023-02-14T06:56:27;101099.69;;;3.13;100.00
29461;BME280;16428;47.836;35.106;2023-02-14T06:59:05;101100.66;;;3.01;100.00
29461;BME280;16428;47.836;35.106;2023-02-14T07:01:50;101098.22;;;3.09;100.00
29461;BME280;16428;47.836;35.106;2023-02-14T07:05:04;101092.69;;;3.12;100.00
29461;BME280;16428;47.836;35.106;2023-02-14T07:08:16;101088.81;;;3.38;100.00
29461;BME280;16428;47.836;35.106;2023-02-14T07:10:49;101090.03;;;3.23;100.00
29461;BME280;16428;47.836;35.106;2023-02-14T07:13:34;101088.22;;;3.12;100.00
29461;BME280;16428;47.836;35.106;2023-02-14T07:16:08;101088.69;;;3.06;100.00
29461;BME280;16428;47.836;35.106;2023-02-14T07:18:39;101098.72;;;3.03;100.00
29461;BME280;16428;47.836;35.106;2023-02-14T07:21:12;101085.81;;;2.98;100.00
29461;BME280;16428;47.836;35.106;2023-02-14T07:24:08;101091.22;;;2.86;100.00
29461;BME280;16428;47.836;35.106;2023-02-14T07:26:39;101093.66;;;3.00;100.00
29461;BME280;16428;47.836;35.106;2023-02-14T07:29:16;101083.72;;;2.91;100.00
29461;BME280;16428;47.836;35.106;2023-02-14T07:31:46;101083.38;;;3.06;100.00
29461;BME280;16428;47.836;35.106;2023-02-14T07:34:16;101080.38;;;3.00;100.00
29461;BME280;16428;47.836;35.106;2023-02-14T07:37:00;101081.34;;;3.10;100.00
29461;BME280;16428;47.836;35.106;2023-02-14T07:39:29;101080.94;;;2.92;100.00
29461;BME280;16428;47.836;35.106;2023-02-14T07:42:02;101080.09;;;2.92;100.00
29461;BME280;16428;47.836;35.106;2023-02-14T07:44:32;101076.16;;;2.86;100.00
29461;BME280;16428;47.836;35.106;2023-02-14T07:47:04;101071.63;;;2.64;100.00
29461;BME280;16428;47.836;35.106;2023-02-14T07:49:34;101078.69;;;2.88;100.00
29461;BME280;16428;47.836;35.106;2023-02-14T07:52:07;101067.34;;;2.86;100.00
29461;BME280;16428;47.836;35.106;2023-02-14T07:54:44;101069.50;;;2.92;100.00
29461;BME280;16428;47.836;35.106;2023-02-14T07:57:34;101051.88;;;2.68;100.00
29461;BME280;16428;47.836;35.106;2023-02-14T08:00:06;101058.31;;;2.88;100.00
29461;BME280;16428;47.836;35.106;2023-02-14T08:02:36;101058.66;;;2.95;100.00
29461;BME280;16428;47.836;35.106;2023-02-14T08:05:05;101058.28;;;3.10;100.00
29461;BME280;16428;47.836;35.106;2023-02-14T08:07:35;101059.09;;;2.77;100.00
29461;BME280;16428;47.836;35.106;2023-02-14T08:10:08;101072.75;;;3.06;100.00
29461;BME280;16428;47.836;35.106;2023-02-14T08:12:44;101063.16;;;3.05;100.00
29461;BME280;16428;47.836;35.106;2023-02-14T08:15:33;101063.00;;;3.07;100.00
29461;BME280;16428;47.836;35.106;2023-02-14T08:18:24;101055.78;;;3.20;100.00
29461;BME280;16428;47.836;35.106;2023-02-14T08:20:56;101052.84;;;3.23;100.00
29461;BME280;16428;47.836;35.106;2023-02-14T08:23:37;101064.72;;;3.19;100.00
29461;BME280;16428;47.836;35.106;2023-02-14T08:26:15;101065.91;;;3.26;100.00
29461;BME280;16428;47.836;35.106;2023-02-14T08:28:46;101054.53;;;3.24;100.00
29461;BME280;16428;47.836;35.106;2023-02-14T08:31:29;101063.00;;;3.29;100.00
29461;BME280;16428;47.836;35.106;2023-02-14T08:34:04;101057.66;;;3.51;100.00
29461;BME280;16428;47.836;35.106;2023-02-14T08:36:39;101071.56;;;3.44;100.00
29461;BME280;16428;47.836;35.106;2023-02-14T08:39:09;101076.50;;;3.60;100.00
29461;BME280;16428;47.836;35.106;2023-02-14T08:41:39;101077.44;;;3.59;100.00
29461;BME280;16428;47.836;35.106;2023-02-14T08:44:08;101065.50;;;3.53;100.00
29461;BME280;16428;47.836;35.106;2023-02-14T08:46:52;101073.31;;;3.77;100.00
29461;BME280;16428;47.836;35.106;2023-02-14T08:49:22;101074.31;;;3.65;100.00
29461;BME280;16428;47.836;35.106;2023-02-14T08:51:56;101079.34;;;3.68;100.00
29461;BME280;16428;47.836;35.106;2023-02-14T08:54:25;101078.41;;;3.58;100.00
29461;BME280;16428;47.836;35.106;2023-02-14T08:56:55;101082.00;;;3.68;100.00
29461;BME280;16428;47.836;35.106;2023-02-14T08:59:26;101080.84;;;3.49;100.00
29461;BME280;16428;47.836;35.106;2023-02-14T09:01:56;101083.69;;;3.69;100.00
29461;BME280;16428;47.836;35.106;2023-02-14T09:04:34;101084.44;;;3.71;100.00
29461;BME280;16428;47.836;35.106;2023-02-14T09:07:04;101094.59;;;3.66;100.00
29461;BME280;16428;47.836;35.106;2023-02-14T09:09:34;101089.53;;;3.51;100.00
29461;BME280;16428;47.836;35.106;2023-02-14T09:12:08;101094.59;;;3.54;100.00
29461;BME280;16428;47.836;35.106;2023-02-14T09:14:43;101084.72;;;3.45;100.00
29461;BME280;16428;47.836;35.106;2023-02-14T09:17:14;101097.13;;;3.56;100.00
29461;BME280;16428;47.836;35.106;2023-02-14T09:19:56;101098.22;;;3.42;100.00
29461;BME280;16428;47.836;35.106;2023-02-14T09:22:34;101107.28;;;3.62;100.00
29461;BME280;16428;47.836;35.106;2023-02-14T09:25:06;101100.41;;;3.48;100.00
29461;BME280;16428;47.836;35.106;2023-02-14T09:27:42;101105.22;;;3.66;100.00
29461;BME280;16428;47.836;35.106;2023-02-14T09:30:14;101093.13;;;3.73;100.00
29461;BME280;16428;47.836;35.106;2023-02-14T09:32:54;101096.78;;;3.61;100.00
29461;BME280;16428;47.836;35.106;2023-02-14T09:35:37;101091.94;;;3.66;100.00
29461;BME280;16428;47.836;35.106;2023-02-14T09:38:10;101092.63;;;3.68;100.00
29461;BME280;16428;47.836;35.106;2023-02-14T09:40:48;101084.44;;;3.71;100.00
29461;BME280;16428;47.836;35.106;2023-02-14T09:43:38;101088.19;;;3.57;100.00
29461;BME280;16428;47.836;35.106;2023-02-14T09:46:14;101078.97;;;3.83;100.00
29461;BME280;16428;47.836;35.106;2023-02-14T09:48:46;101067.00;;;3.89;100.00
29461;BME280;16428;47.836;35.106;2023-02-14T09:51:18;101065.25;;;3.99;100.00
29461;BME280;16428;47.836;35.106;2023-02-14T09:54:11;101077.28;;;3.82;100.00
29461;BME280;16428;47.836;35.106;2023-02-14T10:05:53;101084.81;;;4.09;100.00
29461;BME280;16428;47.836;35.106;2023-02-14T10:11:19;101082.47;;;4.27;100.00
29461;BME280;16428;47.836;35.106;2023-02-14T10:14:21;101074.50;;;4.27;100.00
29461;BME280;16428;47.836;35.106;2023-02-14T10:17:24;101074.84;;;4.22;100.00
29461;BME280;16428;47.836;35.106;2023-02-14T10:20:31;101079.41;;;4.32;100.00
29461;BME280;16428;47.836;35.106;2023-02-14T10:23:48;101084.03;;;4.50;100.00
29461;BME280;16428;47.836;35.106;2023-02-14T10:26:25;101085.72;;;4.51;100.00
29461;BME280;16428;47.836;35.106;2023-02-14T10:29:05;101079.06;;;4.57;100.00
29461;BME280;16428;47.836;35.106;2023-02-14T10:38:00;101082.59;;;4.26;100.00
29461;BME280;16428;47.836;35.106;2023-02-14T10:44:07;101085.69;;;4.93;100.00
29461;BME280;16428;47.836;35.106;2023-02-14T10:50:00;101077.69;;;5.14;100.00
29461;BME280;16428;47.836;35.106;2023-02-14T10:55:48;101068.31;;;4.89;100.00
29461;BME280;16428;47.836;35.106;2023-02-14T10:58:23;101073.97;;;4.95;100.00
29461;BME280;16428;47.836;35.106;2023-02-14T11:00:59;101060.03;;;5.13;100.00
29461;BME280;16428;47.836;35.106;2023-02-14T11:03:41;101064.28;;;5.25;100.00
29461;BME280;16428;47.836;35.106;2023-02-14T11:06:18;101052.28;;;5.40;100.00
29461;BME280;16428;47.836;35.106;2023-02-14T11:08:55;101055.19;;;5.77;100.00
29461;BME280;16428;47.836;35.106;2023-02-14T11:11:40;101055.72;;;5.61;100.00
29461;BME280;16428;47.836;35.106;2023-02-14T11:14:39;101066.38;;;5.61;100.00
29461;BME280;16428;47.836;35.106;2023-02-14T11:17:30;101057.66;;;5.59;100.00
29461;BME280;16428;47.836;35.106;2023-02-14T11:20:28;101061.84;;;5.52;100.00
29461;BME280;16428;47.836;35.106;2023-02-14T11:23:25;101054.22;;;5.38;100.00
29461;BME280;16428;47.836;35.106;2023-02-14T11:25:54;101045.41;;;5.38;100.00
29461;BME280;16428;47.836;35.106;2023-02-14T11:28:44;101042.25;;;5.63;100.00
29461;BME280;16428;47.836;35.106;2023-02-14T11:31:13;101045.06;;;5.71;100.00
29461;BME280;16428;47.836;35.106;2023-02-14T11:33:45;101040.09;;;6.07;100.00
29461;BME280;16428;47.836;35.106;2023-02-14T11:36:18;101043.44;;;6.28;100.00
29461;BME280;16428;47.836;35.106;2023-02-14T11:39:27;101040.50;;;6.41;100.00
29461;BME280;16428;47.836;35.106;2023-02-14T11:42:05;101043.09;;;6.79;100.00
29461;BME280;16428;47.836;35.106;2023-02-14T11:44:53;101042.53;;;6.76;100.00
29461;BME280;16428;47.836;35.106;2023-02-14T11:51:12;101061.03;;;6.96;100.00
29461;BME280;16428;47.836;35.106;2023-02-14T11:53:53;101049.78;;;7.02;99.44
29461;BME280;16428;47.836;35.106;2023-02-14T11:59:50;101057.84;;;6.74;97.37
29461;BME280;16428;47.836;35.106;2023-02-14T12:02:39;101055.66;;;7.06;96.21
29461;BME280;16428;47.836;35.106;2023-02-14T12:05:42;101046.63;;;7.17;93.77
29461;BME280;16428;47.836;35.106;2023-02-14T12:08:12;101032.94;;;7.57;95.64
29461;BME280;16428;47.836;35.106;2023-02-14T12:11:01;101037.88;;;7.79;91.43
29461;BME280;16428;47.836;35.106;2023-02-14T12:13:53;101043.63;;;7.57;89.76
29461;BME280;16428;47.836;35.106;2023-02-14T12:16:51;101032.81;;;7.76;90.32
29461;BME280;16428;47.836;35.106;2023-02-14T12:22:57;101037.03;;;7.24;90.16
29461;BME280;16428;47.836;35.106;2023-02-14T12:31:51;101039.09;;;7.02;90.89
29461;BME280;16428;47.836;35.106;2023-02-14T12:34:38;101041.19;;;7.36;90.72
29461;BME280;16428;47.836;35.106;2023-02-14T12:37:15;101043.97;;;7.44;90.24
29461;BME280;16428;47.836;35.106;2023-02-14T12:46:08;101045.53;;;7.10;92.57
29461;BME280;16428;47.836;35.106;2023-02-14T13:05:19;101060.28;;;5.90;100.00
29461;BME280;16428;47.836;35.106;2023-02-14T13:14:26;101063.00;;;5.59;100.00
29461;BME280;16428;47.836;35.106;2023-02-14T13:23:15;101067.47;;;5.59;100.00
29461;BME280;16428;47.836;35.106;2023-02-14T13:25:59;101061.97;;;5.51;100.00
29461;BME280;16428;47.836;35.106;2023-02-14T13:28:36;101058.47;;;5.50;100.00
29461;BME280;16428;47.836;35.106;2023-02-14T13:31:06;101049.16;;;5.35;100.00
29461;BME280;16428;47.836;35.106;2023-02-14T13:33:49;101068.25;;;5.30;100.00
29461;BME280;16428;47.836;35.106;2023-02-14T13:36:36;101079.47;;;5.34;100.00
29461;BME280;16428;47.836;35.106;2023-02-14T13:39:40;101073.50;;;5.21;100.00
29461;BME280;16428;47.836;35.106;2023-02-14T13:42:50;101082.91;;;5.15;100.00
29461;BME280;16428;47.836;35.106;2023-02-14T13:48:16;101086.16;;;4.77;100.00
29461;BME280;16428;47.836;35.106;2023-02-14T13:51:12;101079.03;;;4.78;100.00
29461;BME280;16428;47.836;35.106;2023-02-14T13:53:58;101084.22;;;4.79;100.00
29461;BME280;16428;47.836;35.106;2023-02-14T13:56:44;101085.19;;;4.78;100.00
29461;BME280;16428;47.836;35.106;2023-02-14T13:59:39;101088.31;;;4.63;100.00
29461;BME280;16428;47.836;35.106;2023-02-14T14:05:44;101087.13;;;4.76;100.00
29461;BME280;16428;47.836;35.106;2023-02-14T14:11:00;101083.69;;;4.44;100.00
29461;BME280;16428;47.836;35.106;2023-02-14T14:22:09;101098.97;;;4.42;100.00
29461;BME280;16428;47.836;35.106;2023-02-14T14:25:37;101095.69;;;4.06;100.00
29461;BME280;16428;47.836;35.106;2023-02-14T14:28:35;101092.56;;;4.01;100.00
29461;BME280;16428;47.836;35.106;2023-02-14T14:31:39;101090.59;;;4.14;100.00
29461;BME280;16428;47.836;35.106;2023-02-14T14:34:24;101083.88;;;3.99;100.00
29461;BME280;16428;47.836;35.106;2023-02-14T14:37:24;101096.13;;;4.22;100.00
29461;BME280;16428;47.836;35.106;2023-02-14T14:43:33;101092.44;;;4.03;100.00
29461;BME280;16428;47.836;35.106;2023-02-14T14:46:11;101098.31;;;4.17;100.00
29461;BME280;16428;47.836;35.106;2023-02-14T14:48:50;101098.84;;;4.11;100.00
29461;BME280;16428;47.836;35.106;2023-02-14T14:51:40;101109.88;;;3.96;100.00
29461;BME280;16428;47.836;35.106;2023-02-14T14:54:26;101093.94;;;3.96;100.00
29461;BME280;16428;47.836;35.106;2023-02-14T14:57:29;101108.06;;;3.85;100.00
29461;BME280;16428;47.836;35.106;2023-02-14T15:01:27;101104.03;;;4.02;100.00
29461;BME280;16428;47.836;35.106;2023-02-14T15:04:33;101115.56;;;3.91;100.00
29461;BME280;16428;47.836;35.106;2023-02-14T15:07:32;101109.56;;;3.78;100.00
29461;BME280;16428;47.836;35.106;2023-02-14T15:10:32;101116.78;;;3.87;100.00
29461;BME280;16428;47.836;35.106;2023-02-14T15:16:58;101120.91;;;3.80;100.00
29461;BME280;16428;47.836;35.106;2023-02-14T15:19:54;101123.78;;;3.88;100.00
29461;BME280;16428;47.836;35.106;2023-02-14T15:25:42;101134.16;;;3.91;100.00
29461;BME280;16428;47.836;35.106;2023-02-14T15:28:34;101139.72;;;3.88;100.00
29461;BME280;16428;47.836;35.106;2023-02-14T15:31:05;101136.09;;;3.89;100.00
29461;BME280;16428;47.836;35.106;2023-02-14T15:33:56;101142.25;;;3.89;100.00
29461;BME280;16428;47.836;35.106;2023-02-14T15:36:30;101137.53;;;3.93;100.00
29461;BME280;16428;47.836;35.106;2023-02-14T15:39:05;101141.66;;;3.97;100.00
29461;BME280;16428;47.836;35.106;2023-02-14T15:41:55;101138.00;;;3.98;100.00
29461;BME280;16428;47.836;35.106;2023-02-14T15:44:25;101146.72;;;3.89;100.00
29461;BME280;16428;47.836;35.106;2023-02-14T15:47:19;101152.50;;;4.05;100.00
29461;BME280;16428;47.836;35.106;2023-02-14T15:50:22;101149.03;;;3.82;100.00
29461;BME280;16428;47.836;35.106;2023-02-14T15:53:37;101160.97;;;3.88;100.00
29461;BME280;16428;47.836;35.106;2023-02-14T16:03:02;101169.66;;;4.01;100.00
29461;BME280;16428;47.836;35.106;2023-02-14T16:06:00;101170.75;;;3.87;100.00
29461;BME280;16428;47.836;35.106;2023-02-14T16:09:00;101164.59;;;3.87;100.00
29461;BME280;16428;47.836;35.106;2023-02-14T16:11:59;101175.50;;;3.62;100.00
29461;BME280;16428;47.836;35.106;2023-02-14T16:15:18;101170.44;;;3.59;100.00
29461;BME280;16428;47.836;35.106;2023-02-14T16:18:18;101179.34;;;3.58;100.00
29461;BME280;16428;47.836;35.106;2023-02-14T16:21:14;101189.97;;;3.58;100.00
29461;BME280;16428;47.836;35.106;2023-02-14T16:24:11;101182.50;;;3.63;100.00
29461;BME280;16428;47.836;35.106;2023-02-14T16:27:07;101189.16;;;3.79;100.00
29461;BME280;16428;47.836;35.106;2023-02-14T16:30:05;101192.78;;;3.78;100.00